Strona główna
METAR-TAF:

METAR-TAF

Lotnisko :

Port lotniczy Labuan

Labuan, Malezja

Szerokość geograficzna: 05-18N, Długość geograficzna: 115-15E, wysokość: 30 m

Aktualna obserwacja pogody

Raport powstał 53 minut temu, godzina 06:00 UTC
Wiatr 4 kt z kierunków zmiennych
Temperatura 30°C
Wilgotność 70%
Ciśnienie 1009 hPa
Widzialność 10 km lub więcej
Mało chmury na wysokości 1600 ft
Przerywane chmury na wysokości 27000 ft

METAR: WBKL 130600Z VRB04KT 9999 FEW016 BKN270 30/24 Q1009

czas: 14:53 (06:53 UTC)

Prognoza

Raport powstał 1 godzina i 53 minut temu, godzina 05:00 UTC
Prognoza ważna od 13 godzina 06 UTC do 14 godzina 06 UTC
Wiatr 3 kt z kierunków zmiennych
Widzialność 10 km lub więcej
Mało chmury na wysokości 1400 ft
Prawdopodobieństwo 30% :
Przejściowo
od 13 godzina 09 UTC do 13 godzina 11 UTC
Widzialność: 7000 m
Mało chmury na wysokości 1000 ft
Mało chmury na wysokości 1500 ft, Cumulonimbus.
przelotny opad deszczu

TAF: WBKL 130500Z 1306/1406 VRB03KT 9999 FEW014 PROB30 TEMPO 1309/1311 7000 SHRA FEW010 FEW015CB

Obserwacja i prognoza pogody dla ponad 4000 lotnisk (raport METAR i TAF).

Dostępne stacje oznaczono żółtymi i czerwonymi punktami na mapie.

Najedź kursorem aby zobaczyć nazwę stacji.

Kliknij aby zobaczyć obserwacje i prognozy pogody.

Aby zmienić mapę: kliknij na zielony przycisk z czarnym krzyżykiem, aby powiększyć; na zielony przycisk z myślnikiem, aby pomniejszyć; na zielone strzałki, aby przejść do map sąsiednich.


METAR-TAF: